sensor_id;sensor_type;location;lat;lon;timestamp;P1;durP1;ratioP1;P2;durP2;ratioP2
56670;SDS011;42545;50.054;8.306;2022-08-18T00:01:09;9.32;;;8.32;;
56670;SDS011;42545;50.054;8.306;2022-08-18T00:03:39;7.72;;;7.03;;
56670;SDS011;42545;50.054;8.306;2022-08-18T00:06:06;7.50;;;6.82;;
56670;SDS011;42545;50.054;8.306;2022-08-18T00:08:33;6.75;;;6.15;;
56670;SDS011;42545;50.054;8.306;2022-08-18T00:11:00;6.50;;;5.90;;
56670;SDS011;42545;50.054;8.306;2022-08-18T00:13:29;6.25;;;5.65;;
56670;SDS011;42545;50.054;8.306;2022-08-18T00:15:56;6.93;;;6.22;;
56670;SDS011;42545;50.054;8.306;2022-08-18T00:18:23;5.95;;;5.45;;
56670;SDS011;42545;50.054;8.306;2022-08-18T00:20:50;6.28;;;5.78;;
56670;SDS011;42545;50.054;8.306;2022-08-18T00:23:16;5.78;;;5.28;;
56670;SDS011;42545;50.054;8.306;2022-08-18T00:25:43;5.38;;;4.88;;
56670;SDS011;42545;50.054;8.306;2022-08-18T00:28:10;5.10;;;4.70;;
56670;SDS011;42545;50.054;8.306;2022-08-18T00:30:39;4.97;;;4.57;;
56670;SDS011;42545;50.054;8.306;2022-08-18T00:33:06;4.72;;;4.32;;
56670;SDS011;42545;50.054;8.306;2022-08-18T00:35:34;4.75;;;4.35;;
56670;SDS011;42545;50.054;8.306;2022-08-18T00:38:04;4.53;;;4.13;;
56670;SDS011;42545;50.054;8.306;2022-08-18T00:40:35;4.40;;;4.00;;
56670;SDS011;42545;50.054;8.306;2022-08-18T00:43:06;4.40;;;4.00;;
56670;SDS011;42545;50.054;8.306;2022-08-18T00:45:40;4.82;;;4.43;;
56670;SDS011;42545;50.054;8.306;2022-08-18T00:48:08;5.97;;;4.93;;
56670;SDS011;42545;50.054;8.306;2022-08-18T00:50:38;5.15;;;4.72;;
56670;SDS011;42545;50.054;8.306;2022-08-18T00:53:14;4.80;;;4.40;;
56670;SDS011;42545;50.054;8.306;2022-08-18T00:55:48;6.28;;;5.68;;
56670;SDS011;42545;50.054;8.306;2022-08-18T00:58:18;6.53;;;5.88;;
56670;SDS011;42545;50.054;8.306;2022-08-18T01:00:50;7.78;;;7.07;;
56670;SDS011;42545;50.054;8.306;2022-08-18T01:03:18;8.52;;;7.70;;
56670;SDS011;42545;50.054;8.306;2022-08-18T01:05:49;7.43;;;6.72;;
56670;SDS011;42545;50.054;8.306;2022-08-18T01:08:22;6.78;;;6.15;;
56670;SDS011;42545;50.054;8.306;2022-08-18T01:10:50;7.07;;;6.47;;
56670;SDS011;42545;50.054;8.306;2022-08-18T01:13:18;6.53;;;5.82;;
56670;SDS011;42545;50.054;8.306;2022-08-18T01:15:45;6.38;;;5.78;;
56670;SDS011;42545;50.054;8.306;2022-08-18T01:18:13;6.53;;;5.93;;
56670;SDS011;42545;50.054;8.306;2022-08-18T01:21:13;6.00;;;5.45;;
56670;SDS011;42545;50.054;8.306;2022-08-18T01:24:03;5.88;;;5.38;;
56670;SDS011;42545;50.054;8.306;2022-08-18T01:26:33;5.43;;;4.93;;
56670;SDS011;42545;50.054;8.306;2022-08-18T01:29:02;5.57;;;5.07;;
56670;SDS011;42545;50.054;8.306;2022-08-18T01:31:37;6.00;;;5.40;;
56670;SDS011;42545;50.054;8.306;2022-08-18T01:34:11;7.05;;;6.35;;
56670;SDS011;42545;50.054;8.306;2022-08-18T01:36:39;7.03;;;6.40;;
56670;SDS011;42545;50.054;8.306;2022-08-18T01:39:10;8.70;;;7.90;;
56670;SDS011;42545;50.054;8.306;2022-08-18T01:41:39;8.45;;;7.63;;
56670;SDS011;42545;50.054;8.306;2022-08-18T01:44:06;10.40;;;8.73;;
56670;SDS011;42545;50.054;8.306;2022-08-18T01:46:36;8.40;;;7.60;;
56670;SDS011;42545;50.054;8.306;2022-08-18T01:49:04;9.05;;;8.15;;
56670;SDS011;42545;50.054;8.306;2022-08-18T01:51:32;8.65;;;7.85;;
56670;SDS011;42545;50.054;8.306;2022-08-18T01:54:02;8.05;;;7.25;;
56670;SDS011;42545;50.054;8.306;2022-08-18T01:56:31;7.80;;;7.03;;
56670;SDS011;42545;50.054;8.306;2022-08-18T01:58:58;9.20;;;8.10;;
56670;SDS011;42545;50.054;8.306;2022-08-18T02:01:25;10.95;;;8.27;;
56670;SDS011;42545;50.054;8.306;2022-08-18T02:03:53;8.93;;;8.07;;
56670;SDS011;42545;50.054;8.306;2022-08-18T02:06:23;8.18;;;7.38;;
56670;SDS011;42545;50.054;8.306;2022-08-18T02:08:50;9.85;;;8.73;;
56670;SDS011;42545;50.054;8.306;2022-08-18T02:11:17;8.05;;;7.18;;
56670;SDS011;42545;50.054;8.306;2022-08-18T02:13:45;9.73;;;7.95;;
56670;SDS011;42545;50.054;8.306;2022-08-18T02:16:12;7.72;;;7.00;;
56670;SDS011;42545;50.054;8.306;2022-08-18T02:18:39;8.38;;;7.43;;
56670;SDS011;42545;50.054;8.306;2022-08-18T02:21:07;7.95;;;7.15;;
56670;SDS011;42545;50.054;8.306;2022-08-18T02:23:37;7.75;;;6.97;;
56670;SDS011;42545;50.054;8.306;2022-08-18T02:26:05;8.18;;;7.38;;
56670;SDS011;42545;50.054;8.306;2022-08-18T02:28:34;7.60;;;6.90;;
56670;SDS011;42545;50.054;8.306;2022-08-18T02:31:05;7.10;;;6.27;;
56670;SDS011;42545;50.054;8.306;2022-08-18T02:33:34;6.28;;;5.68;;
56670;SDS011;42545;50.054;8.306;2022-08-18T02:36:02;7.10;;;6.10;;
56670;SDS011;42545;50.054;8.306;2022-08-18T02:38:31;6.10;;;5.53;;
56670;SDS011;42545;50.054;8.306;2022-08-18T02:41:00;5.78;;;5.28;;
56670;SDS011;42545;50.054;8.306;2022-08-18T02:43:30;6.40;;;5.80;;
56670;SDS011;42545;50.054;8.306;2022-08-18T02:45:57;6.65;;;6.05;;
56670;SDS011;42545;50.054;8.306;2022-08-18T02:48:26;7.63;;;6.82;;
56670;SDS011;42545;50.054;8.306;2022-08-18T02:50:58;7.00;;;6.32;;
56670;SDS011;42545;50.054;8.306;2022-08-18T02:53:27;7.13;;;6.32;;
56670;SDS011;42545;50.054;8.306;2022-08-18T02:55:54;6.55;;;5.70;;
56670;SDS011;42545;50.054;8.306;2022-08-18T02:58:21;7.00;;;6.30;;
56670;SDS011;42545;50.054;8.306;2022-08-18T03:00:48;6.20;;;5.60;;
56670;SDS011;42545;50.054;8.306;2022-08-18T03:03:15;5.70;;;5.20;;
56670;SDS011;42545;50.054;8.306;2022-08-18T03:05:44;5.43;;;4.93;;
56670;SDS011;42545;50.054;8.306;2022-08-18T03:08:12;5.95;;;5.45;;
56670;SDS011;42545;50.054;8.306;2022-08-18T03:10:38;7.00;;;6.30;;
56670;SDS011;42545;50.054;8.306;2022-08-18T03:13:06;7.20;;;6.50;;
56670;SDS011;42545;50.054;8.306;2022-08-18T03:15:33;6.22;;;5.63;;
56670;SDS011;42545;50.054;8.306;2022-08-18T03:18:00;5.82;;;5.32;;
56670;SDS011;42545;50.054;8.306;2022-08-18T03:20:26;5.00;;;4.60;;
56670;SDS011;42545;50.054;8.306;2022-08-18T03:22:55;4.78;;;4.38;;
56670;SDS011;42545;50.054;8.306;2022-08-18T03:25:21;4.93;;;4.13;;
56670;SDS011;42545;50.054;8.306;2022-08-18T03:27:48;4.15;;;3.83;;
56670;SDS011;42545;50.054;8.306;2022-08-18T03:30:15;4.88;;;4.47;;
56670;SDS011;42545;50.054;8.306;2022-08-18T03:32:42;5.63;;;5.07;;
56670;SDS011;42545;50.054;8.306;2022-08-18T03:35:10;6.32;;;5.72;;
56670;SDS011;42545;50.054;8.306;2022-08-18T03:37:38;6.10;;;5.50;;
56670;SDS011;42545;50.054;8.306;2022-08-18T03:40:07;7.25;;;6.55;;
56670;SDS011;42545;50.054;8.306;2022-08-18T03:42:36;7.32;;;6.63;;
56670;SDS011;42545;50.054;8.306;2022-08-18T03:45:03;5.28;;;4.78;;
56670;SDS011;42545;50.054;8.306;2022-08-18T03:47:32;5.95;;;5.35;;
56670;SDS011;42545;50.054;8.306;2022-08-18T03:49:59;6.00;;;5.50;;
56670;SDS011;42545;50.054;8.306;2022-08-18T03:52:26;5.75;;;5.15;;
56670;SDS011;42545;50.054;8.306;2022-08-18T03:54:53;5.38;;;4.88;;
56670;SDS011;42545;50.054;8.306;2022-08-18T03:57:22;4.95;;;4.55;;
56670;SDS011;42545;50.054;8.306;2022-08-18T03:59:48;5.72;;;5.22;;
56670;SDS011;42545;50.054;8.306;2022-08-18T04:02:15;6.13;;;5.53;;
56670;SDS011;42545;50.054;8.306;2022-08-18T04:04:42;8.32;;;7.53;;
56670;SDS011;42545;50.054;8.306;2022-08-18T04:07:09;7.60;;;6.90;;
56670;SDS011;42545;50.054;8.306;2022-08-18T04:09:38;8.32;;;7.25;;
56670;SDS011;42545;50.054;8.306;2022-08-18T04:12:07;9.57;;;8.48;;
56670;SDS011;42545;50.054;8.306;2022-08-18T04:14:38;10.02;;;8.88;;
56670;SDS011;42545;50.054;8.306;2022-08-18T04:17:06;12.63;;;9.95;;
56670;SDS011;42545;50.054;8.306;2022-08-18T04:19:34;12.38;;;9.18;;
56670;SDS011;42545;50.054;8.306;2022-08-18T04:22:02;11.40;;;9.63;;
56670;SDS011;42545;50.054;8.306;2022-08-18T04:24:30;9.65;;;8.65;;
56670;SDS011;42545;50.054;8.306;2022-08-18T04:26:59;9.15;;;8.25;;
56670;SDS011;42545;50.054;8.306;2022-08-18T04:29:27;8.25;;;7.45;;
56670;SDS011;42545;50.054;8.306;2022-08-18T04:31:56;7.57;;;6.78;;
56670;SDS011;42545;50.054;8.306;2022-08-18T04:34:26;9.45;;;7.97;;
56670;SDS011;42545;50.054;8.306;2022-08-18T04:36:54;7.15;;;6.45;;
56670;SDS011;42545;50.054;8.306;2022-08-18T04:39:21;8.70;;;7.90;;
56670;SDS011;42545;50.054;8.306;2022-08-18T04:41:50;9.25;;;8.27;;
56670;SDS011;42545;50.054;8.306;2022-08-18T04:44:18;10.27;;;9.23;;
56670;SDS011;42545;50.054;8.306;2022-08-18T04:46:47;8.88;;;7.97;;
56670;SDS011;42545;50.054;8.306;2022-08-18T04:49:18;9.93;;;8.93;;
56670;SDS011;42545;50.054;8.306;2022-08-18T04:51:49;11.05;;;9.88;;
56670;SDS011;42545;50.054;8.306;2022-08-18T04:54:37;11.20;;;10.05;;
56670;SDS011;42545;50.054;8.306;2022-08-18T04:57:06;9.38;;;8.38;;
56670;SDS011;42545;50.054;8.306;2022-08-18T05:02:02;11.77;;;9.50;;
56670;SDS011;42545;50.054;8.306;2022-08-18T05:07:02;8.63;;;7.80;;
56670;SDS011;42545;50.054;8.306;2022-08-18T05:09:34;8.80;;;7.95;;
56670;SDS011;42545;50.054;8.306;2022-08-18T05:12:03;8.30;;;7.50;;
56670;SDS011;42545;50.054;8.306;2022-08-18T05:14:31;7.80;;;6.93;;
56670;SDS011;42545;50.054;8.306;2022-08-18T05:17:00;8.35;;;7.07;;
56670;SDS011;42545;50.054;8.306;2022-08-18T05:19:28;7.78;;;6.97;;
56670;SDS011;42545;50.054;8.306;2022-08-18T05:22:01;7.28;;;6.55;;
56670;SDS011;42545;50.054;8.306;2022-08-18T05:24:30;7.88;;;7.10;;
56670;SDS011;42545;50.054;8.306;2022-08-18T05:26:59;9.13;;;8.07;;
56670;SDS011;42545;50.054;8.306;2022-08-18T05:29:27;8.02;;;7.32;;
56670;SDS011;42545;50.054;8.306;2022-08-18T05:31:58;8.20;;;7.38;;
56670;SDS011;42545;50.054;8.306;2022-08-18T05:34:27;9.10;;;8.20;;
56670;SDS011;42545;50.054;8.306;2022-08-18T05:36:57;9.35;;;8.38;;
56670;SDS011;42545;50.054;8.306;2022-08-18T05:39:35;9.43;;;8.25;;
56670;SDS011;42545;50.054;8.306;2022-08-18T05:42:06;8.98;;;7.97;;
56670;SDS011;42545;50.054;8.306;2022-08-18T05:44:38;8.82;;;7.85;;
56670;SDS011;42545;50.054;8.306;2022-08-18T05:47:10;7.90;;;7.10;;
56670;SDS011;42545;50.054;8.306;2022-08-18T05:49:40;8.43;;;7.53;;
56670;SDS011;42545;50.054;8.306;2022-08-18T05:52:15;9.23;;;7.88;;
56670;SDS011;42545;50.054;8.306;2022-08-18T05:54:46;9.30;;;7.75;;
56670;SDS011;42545;50.054;8.306;2022-08-18T05:57:32;7.30;;;6.60;;
56670;SDS011;42545;50.054;8.306;2022-08-18T06:00:07;5.75;;;5.25;;
56670;SDS011;42545;50.054;8.306;2022-08-18T06:02:36;5.60;;;5.10;;
56670;SDS011;42545;50.054;8.306;2022-08-18T06:05:13;5.07;;;4.57;;
56670;SDS011;42545;50.054;8.306;2022-08-18T06:07:44;5.68;;;5.07;;
56670;SDS011;42545;50.054;8.306;2022-08-18T06:10:17;5.90;;;5.28;;
56670;SDS011;42545;50.054;8.306;2022-08-18T06:15:17;5.80;;;5.30;;
56670;SDS011;42545;50.054;8.306;2022-08-18T06:18:02;5.95;;;5.38;;
56670;SDS011;42545;50.054;8.306;2022-08-18T06:20:44;4.85;;;4.45;;
56670;SDS011;42545;50.054;8.306;2022-08-18T06:23:28;5.50;;;4.97;;
56670;SDS011;42545;50.054;8.306;2022-08-18T06:26:02;6.43;;;5.72;;
56670;SDS011;42545;50.054;8.306;2022-08-18T06:28:41;5.45;;;4.95;;
56670;SDS011;42545;50.054;8.306;2022-08-18T06:31:17;5.30;;;4.80;;
56670;SDS011;42545;50.054;8.306;2022-08-18T06:33:51;5.22;;;4.72;;
56670;SDS011;42545;50.054;8.306;2022-08-18T06:36:33;5.32;;;4.82;;
56670;SDS011;42545;50.054;8.306;2022-08-18T06:39:06;5.43;;;4.93;;
56670;SDS011;42545;50.054;8.306;2022-08-18T06:41:44;4.80;;;4.40;;
56670;SDS011;42545;50.054;8.306;2022-08-18T06:44:16;5.47;;;4.97;;
56670;SDS011;42545;50.054;8.306;2022-08-18T06:46:49;4.50;;;4.10;;
56670;SDS011;42545;50.054;8.306;2022-08-18T06:49:27;10.23;;;9.02;;
56670;SDS011;42545;50.054;8.306;2022-08-18T06:54:49;8.65;;;7.78;;
56670;SDS011;42545;50.054;8.306;2022-08-18T06:57:20;12.25;;;10.63;;
56670;SDS011;42545;50.054;8.306;2022-08-18T06:59:59;9.52;;;8.52;;
56670;SDS011;42545;50.054;8.306;2022-08-18T07:02:36;9.57;;;7.90;;
56670;SDS011;42545;50.054;8.306;2022-08-18T07:05:14;7.72;;;6.80;;
56670;SDS011;42545;50.054;8.306;2022-08-18T07:07:45;7.78;;;7.03;;
56670;SDS011;42545;50.054;8.306;2022-08-18T07:10:30;7.85;;;7.05;;
56670;SDS011;42545;50.054;8.306;2022-08-18T07:13:07;6.65;;;6.05;;
56670;SDS011;42545;50.054;8.306;2022-08-18T07:15:40;7.57;;;6.88;;
56670;SDS011;42545;50.054;8.306;2022-08-18T07:18:10;7.22;;;6.53;;
56670;SDS011;42545;50.054;8.306;2022-08-18T07:20:42;5.93;;;5.40;;
56670;SDS011;42545;50.054;8.306;2022-08-18T07:23:19;6.72;;;6.10;;
56670;SDS011;42545;50.054;8.306;2022-08-18T07:25:52;6.15;;;5.65;;
56670;SDS011;42545;50.054;8.306;2022-08-18T07:28:28;5.95;;;5.43;;
56670;SDS011;42545;50.054;8.306;2022-08-18T07:31:07;5.50;;;5.00;;
56670;SDS011;42545;50.054;8.306;2022-08-18T07:33:41;6.78;;;6.10;;
56670;SDS011;42545;50.054;8.306;2022-08-18T07:36:16;5.57;;;5.07;;
56670;SDS011;42545;50.054;8.306;2022-08-18T07:38:48;6.45;;;5.85;;
56670;SDS011;42545;50.054;8.306;2022-08-18T07:41:24;5.97;;;5.20;;
56670;SDS011;42545;50.054;8.306;2022-08-18T07:44:00;5.03;;;4.63;;
56670;SDS011;42545;50.054;8.306;2022-08-18T07:46:33;6.75;;;6.15;;
56670;SDS011;42545;50.054;8.306;2022-08-18T07:49:04;5.88;;;5.30;;
56670;SDS011;42545;50.054;8.306;2022-08-18T07:51:37;6.53;;;5.93;;
56670;SDS011;42545;50.054;8.306;2022-08-18T07:54:13;9.20;;;8.30;;
56670;SDS011;42545;50.054;8.306;2022-08-18T07:56:49;8.10;;;7.30;;
56670;SDS011;42545;50.054;8.306;2022-08-18T07:59:23;7.18;;;6.47;;
56670;SDS011;42545;50.054;8.306;2022-08-18T08:01:58;6.18;;;5.60;;
56670;SDS011;42545;50.054;8.306;2022-08-18T08:04:43;5.55;;;5.05;;
56670;SDS011;42545;50.054;8.306;2022-08-18T08:07:20;5.60;;;5.10;;
56670;SDS011;42545;50.054;8.306;2022-08-18T08:09:54;5.40;;;4.90;;
56670;SDS011;42545;50.054;8.306;2022-08-18T08:12:32;6.55;;;5.78;;
56670;SDS011;42545;50.054;8.306;2022-08-18T08:15:10;6.40;;;5.80;;
56670;SDS011;42545;50.054;8.306;2022-08-18T08:17:46;6.18;;;5.57;;
56670;SDS011;42545;50.054;8.306;2022-08-18T08:20:21;5.43;;;4.93;;
56670;SDS011;42545;50.054;8.306;2022-08-18T08:23:00;5.45;;;4.95;;
56670;SDS011;42545;50.054;8.306;2022-08-18T08:25:41;5.47;;;4.88;;
56670;SDS011;42545;50.054;8.306;2022-08-18T08:28:29;8.27;;;7.47;;
56670;SDS011;42545;50.054;8.306;2022-08-18T08:31:08;8.23;;;7.43;;
56670;SDS011;42545;50.054;8.306;2022-08-18T08:33:37;7.07;;;6.43;;
56670;SDS011;42545;50.054;8.306;2022-08-18T08:36:10;10.77;;;9.63;;
56670;SDS011;42545;50.054;8.306;2022-08-18T08:38:44;12.73;;;11.38;;
56670;SDS011;42545;50.054;8.306;2022-08-18T08:41:14;13.40;;;12.02;;
56670;SDS011;42545;50.054;8.306;2022-08-18T08:43:49;12.35;;;11.10;;
56670;SDS011;42545;50.054;8.306;2022-08-18T08:46:23;11.85;;;10.65;;
56670;SDS011;42545;50.054;8.306;2022-08-18T08:48:55;10.27;;;9.27;;
56670;SDS011;42545;50.054;8.306;2022-08-18T08:51:28;14.23;;;12.15;;
56670;SDS011;42545;50.054;8.306;2022-08-18T08:54:00;13.35;;;11.13;;
56670;SDS011;42545;50.054;8.306;2022-08-18T08:56:33;13.95;;;12.35;;
56670;SDS011;42545;50.054;8.306;2022-08-18T08:59:11;16.70;;;13.25;;
56670;SDS011;42545;50.054;8.306;2022-08-18T09:01:42;13.57;;;12.18;;
56670;SDS011;42545;50.054;8.306;2022-08-18T09:04:22;15.15;;;13.00;;
56670;SDS011;42545;50.054;8.306;2022-08-18T09:06:59;10.85;;;9.63;;
56670;SDS011;42545;50.054;8.306;2022-08-18T09:09:50;15.32;;;13.75;;
56670;SDS011;42545;50.054;8.306;2022-08-18T09:12:33;12.00;;;10.80;;
56670;SDS011;42545;50.054;8.306;2022-08-18T09:15:21;13.77;;;12.05;;
56670;SDS011;42545;50.054;8.306;2022-08-18T09:18:17;15.02;;;12.82;;
56670;SDS011;42545;50.054;8.306;2022-08-18T09:21:00;13.18;;;11.85;;
56670;SDS011;42545;50.054;8.306;2022-08-18T09:23:42;14.18;;;11.50;;
56670;SDS011;42545;50.054;8.306;2022-08-18T09:26:22;9.68;;;8.80;;
56670;SDS011;42545;50.054;8.306;2022-08-18T09:28:55;9.27;;;8.38;;
56670;SDS011;42545;50.054;8.306;2022-08-18T09:31:25;10.25;;;9.25;;
56670;SDS011;42545;50.054;8.306;2022-08-18T09:34:06;10.93;;;9.57;;
56670;SDS011;42545;50.054;8.306;2022-08-18T09:36:52;9.82;;;8.82;;
56670;SDS011;42545;50.054;8.306;2022-08-18T09:39:29;13.57;;;10.32;;
56670;SDS011;42545;50.054;8.306;2022-08-18T09:42:25;11.93;;;10.73;;
56670;SDS011;42545;50.054;8.306;2022-08-18T09:44:59;12.00;;;10.68;;
56670;SDS011;42545;50.054;8.306;2022-08-18T09:50:34;10.82;;;9.75;;
56670;SDS011;42545;50.054;8.306;2022-08-18T09:53:15;12.50;;;11.20;;
56670;SDS011;42545;50.054;8.306;2022-08-18T09:56:01;14.52;;;11.63;;
56670;SDS011;42545;50.054;8.306;2022-08-18T10:01:21;16.15;;;12.48;;
56670;SDS011;42545;50.054;8.306;2022-08-18T10:04:16;12.50;;;11.25;;
56670;SDS011;42545;50.054;8.306;2022-08-18T10:06:52;11.23;;;9.90;;
56670;SDS011;42545;50.054;8.306;2022-08-18T10:09:23;12.30;;;11.10;;
56670;SDS011;42545;50.054;8.306;2022-08-18T10:12:09;10.20;;;9.20;;
56670;SDS011;42545;50.054;8.306;2022-08-18T10:14:52;12.35;;;11.02;;
56670;SDS011;42545;50.054;8.306;2022-08-18T10:17:33;11.23;;;9.70;;
56670;SDS011;42545;50.054;8.306;2022-08-18T10:20:15;13.18;;;11.48;;
56670;SDS011;42545;50.054;8.306;2022-08-18T10:22:52;11.07;;;9.98;;
56670;SDS011;42545;50.054;8.306;2022-08-18T10:25:31;16.13;;;13.68;;
56670;SDS011;42545;50.054;8.306;2022-08-18T10:28:02;11.80;;;10.52;;
56670;SDS011;42545;50.054;8.306;2022-08-18T10:30:44;13.02;;;9.77;;
56670;SDS011;42545;50.054;8.306;2022-08-18T10:36:39;10.98;;;9.82;;
56670;SDS011;42545;50.054;8.306;2022-08-18T10:39:13;11.13;;;9.82;;
56670;SDS011;42545;50.054;8.306;2022-08-18T10:41:51;11.80;;;10.18;;
56670;SDS011;42545;50.054;8.306;2022-08-18T10:44:22;10.15;;;9.02;;
56670;SDS011;42545;50.054;8.306;2022-08-18T10:46:51;9.88;;;8.88;;
56670;SDS011;42545;50.054;8.306;2022-08-18T10:49:20;10.82;;;9.82;;
56670;SDS011;42545;50.054;8.306;2022-08-18T10:51:57;9.95;;;8.75;;
56670;SDS011;42545;50.054;8.306;2022-08-18T10:54:41;10.43;;;9.32;;
56670;SDS011;42545;50.054;8.306;2022-08-18T10:57:28;10.30;;;9.27;;
56670;SDS011;42545;50.054;8.306;2022-08-18T11:00:00;14.73;;;12.30;;
56670;SDS011;42545;50.054;8.306;2022-08-18T11:02:39;14.00;;;11.07;;
56670;SDS011;42545;50.054;8.306;2022-08-18T11:05:22;11.48;;;10.30;;
56670;SDS011;42545;50.054;8.306;2022-08-18T11:07:52;11.88;;;10.73;;
56670;SDS011;42545;50.054;8.306;2022-08-18T11:10:35;15.57;;;13.15;;
56670;SDS011;42545;50.054;8.306;2022-08-18T11:13:07;12.18;;;10.93;;
56670;SDS011;42545;50.054;8.306;2022-08-18T11:15:44;11.15;;;10.05;;
56670;SDS011;42545;50.054;8.306;2022-08-18T11:18:22;12.13;;;10.93;;
56670;SDS011;42545;50.054;8.306;2022-08-18T11:24:00;11.80;;;10.25;;
56670;SDS011;42545;50.054;8.306;2022-08-18T11:26:31;8.40;;;7.60;;
56670;SDS011;42545;50.054;8.306;2022-08-18T11:28:59;9.95;;;8.98;;
56670;SDS011;42545;50.054;8.306;2022-08-18T11:31:27;12.40;;;10.70;;
56670;SDS011;42545;50.054;8.306;2022-08-18T11:33:54;8.07;;;7.30;;
56670;SDS011;42545;50.054;8.306;2022-08-18T11:36:28;13.32;;;11.93;;
56670;SDS011;42545;50.054;8.306;2022-08-18T11:38:56;12.10;;;10.88;;
56670;SDS011;42545;50.054;8.306;2022-08-18T11:41:25;13.27;;;9.75;;
56670;SDS011;42545;50.054;8.306;2022-08-18T11:43:56;11.35;;;9.82;;
56670;SDS011;42545;50.054;8.306;2022-08-18T11:46:27;12.10;;;10.40;;
56670;SDS011;42545;50.054;8.306;2022-08-18T11:48:57;12.88;;;11.57;;
56670;SDS011;42545;50.054;8.306;2022-08-18T11:51:26;12.40;;;10.68;;
56670;SDS011;42545;50.054;8.306;2022-08-18T11:56:24;12.60;;;11.30;;
56670;SDS011;42545;50.054;8.306;2022-08-18T11:58:54;10.98;;;9.10;;
56670;SDS011;42545;50.054;8.306;2022-08-18T12:01:30;9.50;;;8.52;;
56670;SDS011;42545;50.054;8.306;2022-08-18T12:04:09;7.45;;;6.40;;
56670;SDS011;42545;50.054;8.306;2022-08-18T12:06:51;10.50;;;9.13;;
56670;SDS011;42545;50.054;8.306;2022-08-18T12:09:24;10.38;;;9.32;;
56670;SDS011;42545;50.054;8.306;2022-08-18T12:11:57;9.75;;;7.18;;
56670;SDS011;42545;50.054;8.306;2022-08-18T12:14:28;8.45;;;7.60;;
56670;SDS011;42545;50.054;8.306;2022-08-18T12:16:57;8.43;;;7.55;;
56670;SDS011;42545;50.054;8.306;2022-08-18T12:19:25;7.60;;;6.88;;
56670;SDS011;42545;50.054;8.306;2022-08-18T12:21:55;7.65;;;6.88;;
56670;SDS011;42545;50.054;8.306;2022-08-18T12:24:25;8.40;;;7.03;;
56670;SDS011;42545;50.054;8.306;2022-08-18T12:26:55;6.88;;;6.25;;
56670;SDS011;42545;50.054;8.306;2022-08-18T12:29:23;9.67;;;7.50;;
56670;SDS011;42545;50.054;8.306;2022-08-18T12:31:54;7.20;;;6.50;;
56670;SDS011;42545;50.054;8.306;2022-08-18T12:34:22;9.43;;;8.55;;
56670;SDS011;42545;50.054;8.306;2022-08-18T12:36:51;8.32;;;7.53;;
56670;SDS011;42545;50.054;8.306;2022-08-18T12:39:20;7.45;;;6.68;;
56670;SDS011;42545;50.054;8.306;2022-08-18T12:41:47;7.07;;;6.22;;
56670;SDS011;42545;50.054;8.306;2022-08-18T12:44:14;6.82;;;6.20;;
56670;SDS011;42545;50.054;8.306;2022-08-18T12:46:41;9.20;;;7.97;;
56670;SDS011;42545;50.054;8.306;2022-08-18T12:49:14;8.23;;;7.00;;
56670;SDS011;42545;50.054;8.306;2022-08-18T12:51:42;7.32;;;6.63;;
56670;SDS011;42545;50.054;8.306;2022-08-18T12:54:09;8.20;;;7.40;;
56670;SDS011;42545;50.054;8.306;2022-08-18T12:56:37;7.07;;;6.38;;
56670;SDS011;42545;50.054;8.306;2022-08-18T13:01:37;9.95;;;7.50;;
56670;SDS011;42545;50.054;8.306;2022-08-18T13:04:05;6.18;;;5.57;;
56670;SDS011;42545;50.054;8.306;2022-08-18T13:06:36;7.35;;;6.65;;
56670;SDS011;42545;50.054;8.306;2022-08-18T13:09:05;7.93;;;6.38;;
56670;SDS011;42545;50.054;8.306;2022-08-18T13:11:32;7.35;;;6.60;;
56670;SDS011;42545;50.054;8.306;2022-08-18T13:13:59;6.47;;;5.88;;
56670;SDS011;42545;50.054;8.306;2022-08-18T13:16:26;6.70;;;6.10;;
56670;SDS011;42545;50.054;8.306;2022-08-18T13:18:57;7.55;;;6.65;;
56670;SDS011;42545;50.054;8.306;2022-08-18T13:21:23;8.40;;;7.60;;
56670;SDS011;42545;50.054;8.306;2022-08-18T13:23:52;8.15;;;7.35;;
56670;SDS011;42545;50.054;8.306;2022-08-18T13:28:51;7.45;;;6.75;;
56670;SDS011;42545;50.054;8.306;2022-08-18T13:31:18;7.75;;;7.05;;
56670;SDS011;42545;50.054;8.306;2022-08-18T13:33:44;9.80;;;8.80;;
56670;SDS011;42545;50.054;8.306;2022-08-18T13:36:11;9.07;;;8.18;;
56670;SDS011;42545;50.054;8.306;2022-08-18T13:38:39;8.10;;;7.13;;
56670;SDS011;42545;50.054;8.306;2022-08-18T13:41:08;8.00;;;7.30;;
56670;SDS011;42545;50.054;8.306;2022-08-18T13:43:37;10.45;;;8.45;;
56670;SDS011;42545;50.054;8.306;2022-08-18T13:46:09;7.78;;;7.07;;
56670;SDS011;42545;50.054;8.306;2022-08-18T13:51:06;8.45;;;6.45;;
56670;SDS011;42545;50.054;8.306;2022-08-18T13:53:35;7.43;;;6.72;;
56670;SDS011;42545;50.054;8.306;2022-08-18T13:56:05;6.63;;;6.03;;
56670;SDS011;42545;50.054;8.306;2022-08-18T13:58:35;7.38;;;6.70;;
56670;SDS011;42545;50.054;8.306;2022-08-18T14:01:04;8.00;;;7.20;;
56670;SDS011;42545;50.054;8.306;2022-08-18T14:03:32;7.18;;;6.47;;
56670;SDS011;42545;50.054;8.306;2022-08-18T14:06:00;7.60;;;6.68;;
56670;SDS011;42545;50.054;8.306;2022-08-18T14:08:27;6.43;;;5.85;;
56670;SDS011;42545;50.054;8.306;2022-08-18T14:10:57;6.47;;;5.88;;
56670;SDS011;42545;50.054;8.306;2022-08-18T14:13:27;11.32;;;8.88;;
56670;SDS011;42545;50.054;8.306;2022-08-18T14:15:56;9.20;;;8.40;;
56670;SDS011;42545;50.054;8.306;2022-08-18T14:18:23;9.80;;;8.80;;
56670;SDS011;42545;50.054;8.306;2022-08-18T14:20:53;9.50;;;8.38;;
56670;SDS011;42545;50.054;8.306;2022-08-18T14:23:38;12.77;;;11.15;;
56670;SDS011;42545;50.054;8.306;2022-08-18T14:26:24;12.07;;;9.98;;
56670;SDS011;42545;50.054;8.306;2022-08-18T14:29:08;12.85;;;11.55;;
56670;SDS011;42545;50.054;8.306;2022-08-18T14:31:37;12.68;;;11.48;;
56670;SDS011;42545;50.054;8.306;2022-08-18T14:34:04;11.60;;;10.15;;
56670;SDS011;42545;50.054;8.306;2022-08-18T14:36:32;12.23;;;11.02;;
56670;SDS011;42545;50.054;8.306;2022-08-18T14:38:58;11.40;;;10.15;;
56670;SDS011;42545;50.054;8.306;2022-08-18T14:41:26;11.68;;;10.43;;
56670;SDS011;42545;50.054;8.306;2022-08-18T14:43:53;11.70;;;10.60;;
56670;SDS011;42545;50.054;8.306;2022-08-18T14:46:22;11.10;;;10.00;;
56670;SDS011;42545;50.054;8.306;2022-08-18T14:48:52;12.13;;;10.07;;
56670;SDS011;42545;50.054;8.306;2022-08-18T14:51:18;9.45;;;8.52;;
56670;SDS011;42545;50.054;8.306;2022-08-18T14:53:46;9.57;;;8.68;;
56670;SDS011;42545;50.054;8.306;2022-08-18T14:56:13;10.00;;;8.70;;
56670;SDS011;42545;50.054;8.306;2022-08-18T14:58:40;11.23;;;10.07;;
56670;SDS011;42545;50.054;8.306;2022-08-18T15:01:07;11.93;;;10.13;;
56670;SDS011;42545;50.054;8.306;2022-08-18T15:03:37;9.55;;;8.65;;
56670;SDS011;42545;50.054;8.306;2022-08-18T15:06:06;13.63;;;12.15;;
56670;SDS011;42545;50.054;8.306;2022-08-18T15:08:35;15.15;;;13.55;;
56670;SDS011;42545;50.054;8.306;2022-08-18T15:11:03;17.75;;;15.75;;
56670;SDS011;42545;50.054;8.306;2022-08-18T15:13:32;17.10;;;14.93;;
56670;SDS011;42545;50.054;8.306;2022-08-18T15:15:59;17.80;;;14.80;;
56670;SDS011;42545;50.054;8.306;2022-08-18T15:18:31;16.33;;;14.55;;
56670;SDS011;42545;50.054;8.306;2022-08-18T15:20:58;17.05;;;13.80;;
56670;SDS011;42545;50.054;8.306;2022-08-18T15:23:44;13.80;;;12.40;;
56670;SDS011;42545;50.054;8.306;2022-08-18T15:26:28;13.43;;;12.02;;
56670;SDS011;42545;50.054;8.306;2022-08-18T15:28:56;13.23;;;11.85;;
56670;SDS011;42545;50.054;8.306;2022-08-18T15:31:24;12.85;;;11.10;;
56670;SDS011;42545;50.054;8.306;2022-08-18T15:33:52;11.45;;;10.35;;
56670;SDS011;42545;50.054;8.306;2022-08-18T15:36:19;13.02;;;11.57;;
56670;SDS011;42545;50.054;8.306;2022-08-18T15:38:49;12.68;;;10.60;;
56670;SDS011;42545;50.054;8.306;2022-08-18T15:41:25;11.30;;;9.95;;